createdAt,value
2019-02-16T00:02:22.422Z,50.50
2019-02-16T00:04:56.759Z,50.80
2019-02-16T00:07:28.444Z,50.20
2019-02-16T00:10:02.060Z,50.40
2019-02-16T00:12:39.768Z,50.40
2019-02-16T00:15:11.572Z,50.60
2019-02-16T00:17:43.567Z,50.60
2019-02-16T00:22:41.307Z,50.30
2019-02-16T00:25:13.704Z,50.30
2019-02-16T00:27:52.101Z,49.80
2019-02-16T00:30:28.138Z,49.70
2019-02-16T00:33:02.884Z,49.70
2019-02-16T00:35:34.055Z,50.00
2019-02-16T00:38:20.939Z,50.20
2019-02-16T00:40:56.113Z,50.00
2019-02-16T00:43:27.760Z,50.10
2019-02-16T00:46:04.882Z,50.10
2019-02-16T00:48:39.803Z,50.70
2019-02-16T00:51:18.115Z,50.80
2019-02-16T00:54:02.727Z,50.90
2019-02-16T00:56:46.400Z,50.80
2019-02-16T00:59:22.335Z,50.80
2019-02-16T01:02:03.379Z,50.60
2019-02-16T01:04:43.310Z,50.50
2019-02-16T01:07:20.302Z,51.60
2019-02-16T01:09:48.225Z,51.30
2019-02-16T01:12:49.173Z,51.60
2019-02-16T01:15:25.566Z,51.90
2019-02-16T01:18:29.735Z,52.00
2019-02-16T01:21:08.400Z,51.60
2019-02-16T01:24:18.720Z,51.30
2019-02-16T01:26:53.659Z,50.70
2019-02-16T01:36:31.826Z,51.70
2019-02-16T01:39:09.186Z,51.50
2019-02-16T01:42:09.432Z,51.20
2019-02-16T01:44:45.136Z,51.30
2019-02-16T01:47:50.728Z,51.30
2019-02-16T01:50:24.502Z,51.20
2019-02-16T01:53:40.262Z,51.30
2019-02-16T01:56:09.736Z,51.40
2019-02-16T01:59:12.129Z,51.80
2019-02-16T02:01:50.950Z,52.10
2019-02-16T02:04:35.662Z,51.90
2019-02-16T02:07:07.457Z,52.10
2019-02-16T02:09:40.592Z,52.40
2019-02-16T02:12:18.761Z,52.50
2019-02-16T02:14:49.478Z,52.40
2019-02-16T02:17:27.855Z,52.10
2019-02-16T02:20:02.525Z,51.90
2019-02-16T02:22:36.004Z,51.80
2019-02-16T02:28:02.404Z,51.50
2019-02-16T02:30:39.195Z,51.60
2019-02-16T02:33:12.627Z,51.50
2019-02-16T02:35:47.736Z,51.50
2019-02-16T02:38:18.817Z,51.20
2019-02-16T02:40:52.350Z,51.20
2019-02-16T02:43:25.428Z,51.00
2019-02-16T02:45:57.797Z,51.20
2019-02-16T02:48:30.707Z,51.20
2019-02-16T02:51:05.040Z,51.00
2019-02-16T02:53:37.350Z,51.00
2019-02-16T02:56:10.702Z,50.80
2019-02-16T02:58:44.065Z,51.00
2019-02-16T03:01:19.428Z,50.90
2019-02-16T03:03:53.114Z,50.90
2019-02-16T03:06:33.223Z,50.50
2019-02-16T03:09:05.848Z,50.60
2019-02-16T03:11:38.913Z,50.50
2019-02-16T03:14:13.508Z,50.50
2019-02-16T03:16:47.155Z,50.70
2019-02-16T03:19:19.496Z,50.50
2019-02-16T03:22:02.440Z,50.70
2019-02-16T03:24:27.147Z,50.50
2019-02-16T03:27:11.120Z,49.40
2019-02-16T03:29:49.815Z,50.40
2019-02-16T03:32:35.490Z,50.40
2019-02-16T03:35:30.405Z,49.70
2019-02-16T03:38:41.260Z,50.20
2019-02-16T03:41:12.119Z,50.30
2019-02-16T03:43:48.272Z,50.30
2019-02-16T03:46:22.545Z,50.40
2019-02-16T03:48:55.979Z,50.20
2019-02-16T03:51:37.002Z,50.40
2019-02-16T03:54:16.048Z,50.50
2019-02-16T03:56:49.859Z,50.60
2019-02-16T03:59:24.389Z,50.60
2019-02-16T04:01:57.455Z,50.80
2019-02-16T04:04:31.609Z,51.00
2019-02-16T04:07:04.703Z,51.10
2019-02-16T04:09:42.569Z,51.20
2019-02-16T04:12:19.597Z,51.20
2019-02-16T04:14:56.271Z,51.50
2019-02-16T04:17:28.645Z,51.40
2019-02-16T04:20:03.978Z,51.60
2019-02-16T04:22:37.348Z,51.60
2019-02-16T04:25:11.769Z,51.60
2019-02-16T04:27:48.811Z,51.40
2019-02-16T04:30:21.362Z,51.60
2019-02-16T04:32:58.315Z,51.70
2019-02-16T04:35:31.586Z,52.30
2019-02-16T04:38:06.164Z,51.70
2019-02-16T04:40:43.299Z,51.80
2019-02-16T04:43:21.565Z,51.70
2019-02-16T04:45:53.521Z,51.70
2019-02-16T04:48:25.596Z,51.60
2019-02-16T04:51:03.843Z,51.60
2019-02-16T04:53:36.851Z,52.10
2019-02-16T04:56:10.952Z,52.20
2019-02-16T04:58:44.414Z,52.00
2019-02-16T05:01:17.104Z,52.00
2019-02-16T05:03:55.443Z,52.20
2019-02-16T05:06:33.397Z,52.10
2019-02-16T05:09:08.160Z,51.90
2019-02-16T05:11:43.130Z,53.30
2019-02-16T05:14:18.778Z,52.20
2019-02-16T05:16:53.826Z,52.20
2019-02-16T05:19:25.548Z,52.20
2019-02-16T05:21:58.180Z,51.90
2019-02-16T05:24:36.652Z,51.90
2019-02-16T05:27:10.063Z,52.50
2019-02-16T05:29:42.717Z,51.80
2019-02-16T05:32:15.899Z,51.80
2019-02-16T05:34:49.083Z,51.80
2019-02-16T05:37:20.536Z,52.00
2019-02-16T05:39:58.366Z,51.90
2019-02-16T05:42:29.964Z,52.10
2019-02-16T05:45:05.182Z,52.00
2019-02-16T05:47:36.610Z,52.00
2019-02-16T05:50:10.817Z,52.20
2019-02-16T05:52:53.777Z,52.30
2019-02-16T05:55:18.161Z,52.50
2019-02-16T05:57:51.912Z,52.30
2019-02-16T06:00:28.689Z,52.40
2019-02-16T06:03:03.145Z,53.20
2019-02-16T06:05:34.569Z,53.90
2019-02-16T06:08:16.239Z,53.50
2019-02-16T06:10:50.338Z,53.40
2019-02-16T06:13:22.615Z,53.70
2019-02-16T06:15:55.836Z,53.60
2019-02-16T06:18:32.325Z,53.80
2019-02-16T06:21:08.160Z,54.00
2019-02-16T06:23:41.899Z,53.90
2019-02-16T06:26:12.831Z,53.80
2019-02-16T06:28:43.871Z,54.00
2019-02-16T06:31:21.395Z,54.20
2019-02-16T06:33:57.079Z,54.10
2019-02-16T06:36:29.695Z,54.40
2019-02-16T06:39:01.773Z,54.40
2019-02-16T06:41:33.572Z,54.70
2019-02-16T06:44:05.315Z,54.70
2019-02-16T06:46:42.989Z,55.00
2019-02-16T06:49:11.706Z,55.10
2019-02-16T06:51:47.177Z,54.90
2019-02-16T06:54:23.877Z,54.90
2019-02-16T06:57:06.025Z,55.10
2019-02-16T06:59:40.426Z,55.20
2019-02-16T07:02:12.671Z,55.10
2019-02-16T07:04:48.302Z,55.10
2019-02-16T07:07:22.139Z,55.40
2019-02-16T07:09:57.538Z,56.40
2019-02-16T07:12:29.461Z,55.40
2019-02-16T07:15:05.625Z,55.40
2019-02-16T07:17:42.421Z,55.40
2019-02-16T07:20:14.675Z,55.70
2019-02-16T07:22:47.239Z,54.00
2019-02-16T07:25:18.545Z,55.30
2019-02-16T07:27:50.756Z,55.20
2019-02-16T07:30:22.899Z,55.30
2019-02-16T07:32:55.710Z,55.40
2019-02-16T07:35:31.634Z,55.50
2019-02-16T07:38:03.051Z,55.60
2019-02-16T07:40:35.324Z,55.40
2019-02-16T07:43:08.526Z,55.40
2019-02-16T07:45:40.594Z,55.20
2019-02-16T07:48:24.194Z,54.90
2019-02-16T07:51:00.073Z,55.30
2019-02-16T07:53:49.176Z,55.40
2019-02-16T07:56:21.671Z,55.50
2019-02-16T07:58:53.340Z,55.50
2019-02-16T08:01:43.760Z,55.40
2019-02-16T08:04:18.713Z,55.50
2019-02-16T08:06:51.505Z,55.90
2019-02-16T08:09:36.116Z,55.70
2019-02-16T08:12:11.499Z,55.40
2019-02-16T08:15:02.005Z,55.20
2019-02-16T08:17:34.409Z,54.00
2019-02-16T08:20:15.157Z,55.40
2019-02-16T08:22:57.014Z,55.00
2019-02-16T08:25:44.353Z,56.10
2019-02-16T08:28:27.931Z,56.50
2019-02-16T08:31:11.962Z,56.30
2019-02-16T08:33:52.269Z,55.50
2019-02-16T08:36:26.395Z,54.60
2019-02-16T08:39:07.141Z,54.00
2019-02-16T08:41:56.587Z,53.40
2019-02-16T08:44:51.411Z,53.10
2019-02-16T08:47:25.122Z,53.30
2019-02-16T08:49:59.763Z,52.60
2019-02-16T08:52:49.949Z,51.30
2019-02-16T08:55:47.395Z,52.10
2019-02-16T08:58:17.991Z,51.80
2019-02-16T09:01:11.207Z,50.60
2019-02-16T09:03:45.704Z,49.90
2019-02-16T09:06:21.039Z,49.60
2019-02-16T09:09:03.222Z,49.40
2019-02-16T09:11:38.608Z,49.80
2019-02-16T09:14:13.002Z,50.10
2019-02-16T09:16:51.093Z,50.00
2019-02-16T09:19:38.355Z,49.70
2019-02-16T09:22:08.314Z,49.50
2019-02-16T09:24:47.230Z,49.20
2019-02-16T09:27:30.949Z,48.90
2019-02-16T09:30:15.196Z,48.50
2019-02-16T09:32:55.241Z,47.80
2019-02-16T09:35:32.560Z,47.50
2019-02-16T09:38:27.828Z,47.30
2019-02-16T09:41:09.319Z,47.40
2019-02-16T09:43:46.740Z,47.90
2019-02-16T09:46:30.229Z,47.50
2019-02-16T09:49:03.567Z,47.40
2019-02-16T09:51:36.452Z,47.20
2019-02-16T09:54:08.808Z,47.20
2019-02-16T09:56:52.323Z,46.80
2019-02-16T09:59:24.364Z,46.40
2019-02-16T10:01:59.564Z,45.50
2019-02-16T10:04:49.764Z,44.80
2019-02-16T10:07:26.602Z,44.70
2019-02-16T10:12:38.639Z,44.60
2019-02-16T10:15:31.172Z,44.70
2019-02-16T10:18:13.184Z,44.80
2019-02-16T10:20:51.190Z,44.90
2019-02-16T10:23:40.910Z,45.30
2019-02-16T10:26:36.164Z,45.60
2019-02-16T10:29:10.007Z,45.60
2019-02-16T10:31:42.613Z,45.50
2019-02-16T10:34:26.166Z,45.40
2019-02-16T10:37:13.469Z,45.10
2019-02-16T10:39:46.414Z,45.10
2019-02-16T10:42:34.503Z,45.10
2019-02-16T10:45:09.776Z,44.90
2019-02-16T10:47:41.008Z,45.10
2019-02-16T10:50:29.258Z,44.90
2019-02-16T10:53:11.683Z,44.50
2019-02-16T10:55:49.878Z,44.30
2019-02-16T10:58:32.192Z,44.00
2019-02-16T11:01:02.871Z,44.60
2019-02-16T11:03:37.108Z,43.70
2019-02-16T11:06:07.571Z,43.70
2019-02-16T11:08:51.248Z,43.50
2019-02-16T11:11:24.978Z,43.20
2019-02-16T11:14:04.900Z,42.30
2019-02-16T11:16:42.114Z,41.20
2019-02-16T11:22:00.316Z,40.30
2019-02-16T11:24:36.016Z,39.20
2019-02-16T11:27:08.481Z,38.10
2019-02-16T11:29:51.699Z,40.00
2019-02-16T11:32:31.660Z,41.90
2019-02-16T11:35:02.776Z,41.30
2019-02-16T11:37:43.353Z,42.20
2019-02-16T11:40:23.447Z,42.60
2019-02-16T11:43:08.720Z,42.40
2019-02-16T11:45:57.354Z,42.20
2019-02-16T11:48:48.257Z,41.10
2019-02-16T11:51:22.025Z,41.40
2019-02-16T11:53:55.313Z,40.80
2019-02-16T11:56:45.550Z,40.90
2019-02-16T11:59:20.334Z,40.50
2019-02-16T12:01:59.907Z,40.20
2019-02-16T12:04:31.469Z,40.20
2019-02-16T12:07:17.952Z,40.10
2019-02-16T12:09:57.718Z,40.00
2019-02-16T12:12:43.509Z,39.80
2019-02-16T12:15:17.019Z,39.20
2019-02-16T12:17:47.589Z,38.60
2019-02-16T12:20:33.322Z,38.80
2019-02-16T12:22:59.757Z,38.90
2019-02-16T12:25:36.483Z,38.60
2019-02-16T12:28:25.292Z,38.50
2019-02-16T12:31:01.718Z,39.10
2019-02-16T12:33:32.154Z,37.80
2019-02-16T12:36:21.892Z,37.70
2019-02-16T12:39:04.646Z,34.80
2019-02-16T12:41:37.035Z,32.90
2019-02-16T12:44:25.863Z,32.70
2019-02-16T12:46:58.996Z,32.30
2019-02-16T12:49:47.400Z,32.30
2019-02-16T12:52:17.899Z,32.30
2019-02-16T12:54:54.340Z,31.50
2019-02-16T12:57:36.158Z,31.70
2019-02-16T13:00:25.188Z,31.60
2019-02-16T13:03:09.507Z,31.20
2019-02-16T13:05:55.326Z,30.70
2019-02-16T13:08:26.423Z,30.60
2019-02-16T13:10:56.815Z,31.10
2019-02-16T13:13:33.555Z,30.80
2019-02-16T13:16:18.809Z,31.10
2019-02-16T13:18:49.487Z,30.80
2019-02-16T13:21:22.958Z,30.70
2019-02-16T13:23:56.348Z,29.90
2019-02-16T13:26:45.566Z,30.50
2019-02-16T13:29:21.333Z,30.80
2019-02-16T13:31:53.333Z,30.50
2019-02-16T13:34:24.794Z,30.50
2019-02-16T13:36:55.234Z,30.70
2019-02-16T13:39:32.332Z,30.00
2019-02-16T13:42:16.349Z,30.10
2019-02-16T13:45:29.115Z,30.20
2019-02-16T13:48:01.196Z,30.90
2019-02-16T13:53:54.739Z,30.80
2019-02-16T13:59:42.261Z,30.50
2019-02-16T14:02:57.724Z,30.70
2019-02-16T14:05:51.046Z,30.60
2019-02-16T14:09:12.967Z,30.30
2019-02-16T14:12:00.273Z,29.90
2019-02-16T14:14:39.300Z,29.60
2019-02-16T14:17:25.395Z,30.00
2019-02-16T14:22:21.272Z,29.60
2019-02-16T14:28:08.954Z,29.90
2019-02-16T14:30:46.674Z,28.50
2019-02-16T14:33:18.297Z,30.00
2019-02-16T14:36:19.486Z,30.30
2019-02-16T14:39:03.415Z,30.00
2019-02-16T14:41:58.340Z,29.90
2019-02-16T14:44:32.496Z,29.90
2019-02-16T14:50:01.611Z,35.10
2019-02-16T14:55:21.943Z,40.10
2019-02-16T14:57:50.734Z,39.20
2019-02-16T15:00:27.910Z,37.10
2019-02-16T15:02:57.644Z,38.70
2019-02-16T15:05:26.459Z,39.00
2019-02-16T15:07:56.406Z,39.80
2019-02-16T15:10:43.050Z,40.20
2019-02-16T15:13:13.315Z,40.90
2019-02-16T15:16:16.008Z,41.80
2019-02-16T15:18:45.372Z,41.50
2019-02-16T15:28:00.093Z,42.10
2019-02-16T15:30:36.447Z,42.10
2019-02-16T15:37:57.058Z,42.00
2019-02-16T15:40:26.082Z,42.20
2019-02-16T15:45:24.708Z,42.20
2019-02-16T15:47:53.544Z,42.30
2019-02-16T15:52:53.065Z,42.30
2019-02-16T15:55:24.809Z,42.10
2019-02-16T15:57:53.662Z,42.10
2019-02-16T16:00:23.796Z,42.20
2019-02-16T16:03:15.218Z,42.60
2019-02-16T16:05:31.014Z,42.60
2019-02-16T16:10:30.851Z,42.90
2019-02-16T16:13:51.430Z,43.50
2019-02-16T16:16:31.238Z,43.60
2019-02-16T16:19:07.647Z,44.40
2019-02-16T16:25:11.587Z,45.80
2019-02-16T16:27:46.167Z,46.40
2019-02-16T16:30:16.827Z,46.30
2019-02-16T16:32:57.280Z,46.10
2019-02-16T16:38:09.500Z,47.00
2019-02-16T16:40:49.579Z,47.60
2019-02-16T16:43:20.352Z,48.00
2019-02-16T16:45:54.091Z,48.20
2019-02-16T16:48:31.096Z,47.70
2019-02-16T16:54:13.413Z,48.60
2019-02-16T16:57:25.601Z,48.90
2019-02-16T17:00:07.095Z,49.40
2019-02-16T17:03:22.745Z,49.60
2019-02-16T17:05:56.126Z,49.90
2019-02-16T17:11:24.133Z,50.50
2019-02-16T17:14:05.648Z,50.70
2019-02-16T17:16:39.628Z,50.80
2019-02-16T17:19:34.353Z,51.10
2019-02-16T17:21:44.381Z,51.30
2019-02-16T17:24:17.928Z,51.30
2019-02-16T17:27:38.910Z,51.20
2019-02-16T17:30:12.100Z,51.70
2019-02-16T17:35:53.201Z,52.20
2019-02-16T17:39:01.744Z,51.80
2019-02-16T17:41:36.238Z,51.90
2019-02-16T17:44:51.138Z,52.90
2019-02-16T17:47:43.147Z,53.60
2019-02-16T17:50:47.751Z,53.40
2019-02-16T17:53:24.220Z,53.90
2019-02-16T17:56:30.709Z,53.10
2019-02-16T17:59:04.137Z,53.20
2019-02-16T18:02:21.920Z,53.10
2019-02-16T18:05:01.400Z,53.10
2019-02-16T18:07:55.252Z,53.20
2019-02-16T18:10:40.483Z,53.50
2019-02-16T18:13:12.635Z,53.10
2019-02-16T18:16:00.261Z,52.80
2019-02-16T18:18:45.210Z,52.80
2019-02-16T18:21:15.662Z,51.80
